sensor_id;sensor_type;location;lat;lon;timestamp;temperature;humidity
18741;DHT22;9499;52.472;13.448;2024-03-08T00:01:24;3.00;99.90
18741;DHT22;9499;52.472;13.448;2024-03-08T00:03:50;3.00;99.90
18741;DHT22;9499;52.472;13.448;2024-03-08T00:06:17;3.00;1.80
18741;DHT22;9499;52.472;13.448;2024-03-08T00:08:45;3.00;1.00
18741;DHT22;9499;52.472;13.448;2024-03-08T00:11:11;3.00;1.00
18741;DHT22;9499;52.472;13.448;2024-03-08T00:13:38;3.00;1.00
18741;DHT22;9499;52.472;13.448;2024-03-08T00:16:05;3.10;1.00
18741;DHT22;9499;52.472;13.448;2024-03-08T00:18:31;3.10;1.00
18741;DHT22;9499;52.472;13.448;2024-03-08T00:20:58;3.10;1.00
18741;DHT22;9499;52.472;13.448;2024-03-08T00:23:25;3.00;1.00
18741;DHT22;9499;52.472;13.448;2024-03-08T00:25:54;3.00;1.00
18741;DHT22;9499;52.472;13.448;2024-03-08T00:28:22;3.00;1.00
18741;DHT22;9499;52.472;13.448;2024-03-08T00:30:50;3.00;1.00
18741;DHT22;9499;52.472;13.448;2024-03-08T00:33:16;3.00;1.00
18741;DHT22;9499;52.472;13.448;2024-03-08T00:35:43;3.00;1.00
18741;DHT22;9499;52.472;13.448;2024-03-08T00:38:09;2.90;16.20
18741;DHT22;9499;52.472;13.448;2024-03-08T00:40:36;2.90;99.90
18741;DHT22;9499;52.472;13.448;2024-03-08T00:43:04;2.90;34.50
18741;DHT22;9499;52.472;13.448;2024-03-08T00:45:30;2.90;14.80
18741;DHT22;9499;52.472;13.448;2024-03-08T00:47:57;2.90;99.90
18741;DHT22;9499;52.472;13.448;2024-03-08T00:50:23;2.80;99.90
18741;DHT22;9499;52.472;13.448;2024-03-08T00:52:50;2.80;99.90
18741;DHT22;9499;52.472;13.448;2024-03-08T00:55:16;2.80;99.90
18741;DHT22;9499;52.472;13.448;2024-03-08T00:57:42;2.80;1.00
18741;DHT22;9499;52.472;13.448;2024-03-08T01:00:11;2.80;99.90
18741;DHT22;9499;52.472;13.448;2024-03-08T01:02:38;2.80;1.00
18741;DHT22;9499;52.472;13.448;2024-03-08T01:05:05;2.80;1.00
18741;DHT22;9499;52.472;13.448;2024-03-08T01:07:32;2.80;99.90
18741;DHT22;9499;52.472;13.448;2024-03-08T01:09:59;2.80;99.90
18741;DHT22;9499;52.472;13.448;2024-03-08T01:12:26;2.90;99.90
18741;DHT22;9499;52.472;13.448;2024-03-08T01:14:52;2.90;1.00
18741;DHT22;9499;52.472;13.448;2024-03-08T01:17:20;2.90;1.00
18741;DHT22;9499;52.472;13.448;2024-03-08T01:19:47;2.80;1.00
18741;DHT22;9499;52.472;13.448;2024-03-08T01:22:13;2.80;95.50
18741;DHT22;9499;52.472;13.448;2024-03-08T01:24:39;2.80;99.90
18741;DHT22;9499;52.472;13.448;2024-03-08T01:27:06;2.80;99.90
18741;DHT22;9499;52.472;13.448;2024-03-08T01:29:34;2.70;99.90
18741;DHT22;9499;52.472;13.448;2024-03-08T01:32:01;2.70;1.00
18741;DHT22;9499;52.472;13.448;2024-03-08T01:34:29;2.70;1.00
18741;DHT22;9499;52.472;13.448;2024-03-08T01:36:55;2.70;99.90
18741;DHT22;9499;52.472;13.448;2024-03-08T01:39:22;2.70;1.00
18741;DHT22;9499;52.472;13.448;2024-03-08T01:41:49;2.70;1.00
18741;DHT22;9499;52.472;13.448;2024-03-08T01:44:15;2.60;1.00
18741;DHT22;9499;52.472;13.448;2024-03-08T01:46:44;2.60;75.40
18741;DHT22;9499;52.472;13.448;2024-03-08T01:49:11;2.50;99.90
18741;DHT22;9499;52.472;13.448;2024-03-08T01:51:40;2.50;1.00
18741;DHT22;9499;52.472;13.448;2024-03-08T01:54:08;2.50;1.00
18741;DHT22;9499;52.472;13.448;2024-03-08T01:56:35;2.50;1.00
18741;DHT22;9499;52.472;13.448;2024-03-08T01:59:02;2.60;99.90
18741;DHT22;9499;52.472;13.448;2024-03-08T02:01:29;2.50;99.90
18741;DHT22;9499;52.472;13.448;2024-03-08T02:03:56;2.60;18.60
18741;DHT22;9499;52.472;13.448;2024-03-08T02:06:22;2.60;1.00
18741;DHT22;9499;52.472;13.448;2024-03-08T02:08:50;2.60;63.70
18741;DHT22;9499;52.472;13.448;2024-03-08T02:11:17;2.60;99.90
18741;DHT22;9499;52.472;13.448;2024-03-08T02:13:45;2.50;99.90
18741;DHT22;9499;52.472;13.448;2024-03-08T02:16:12;2.50;1.00
18741;DHT22;9499;52.472;13.448;2024-03-08T02:18:39;2.40;1.00
18741;DHT22;9499;52.472;13.448;2024-03-08T02:21:07;2.40;99.90
18741;DHT22;9499;52.472;13.448;2024-03-08T02:23:33;2.40;99.90
18741;DHT22;9499;52.472;13.448;2024-03-08T02:26:00;2.40;1.00
18741;DHT22;9499;52.472;13.448;2024-03-08T02:28:27;2.40;1.00
18741;DHT22;9499;52.472;13.448;2024-03-08T02:30:54;2.40;1.00
18741;DHT22;9499;52.472;13.448;2024-03-08T02:33:22;2.30;1.00
18741;DHT22;9499;52.472;13.448;2024-03-08T02:35:49;2.30;1.00
18741;DHT22;9499;52.472;13.448;2024-03-08T02:38:19;2.20;1.00
18741;DHT22;9499;52.472;13.448;2024-03-08T02:40:47;2.30;1.00
18741;DHT22;9499;52.472;13.448;2024-03-08T02:43:15;2.20;1.00
18741;DHT22;9499;52.472;13.448;2024-03-08T02:45:42;2.20;1.00
18741;DHT22;9499;52.472;13.448;2024-03-08T02:48:09;2.10;99.90
18741;DHT22;9499;52.472;13.448;2024-03-08T02:50:36;2.10;99.90
18741;DHT22;9499;52.472;13.448;2024-03-08T02:53:03;2.00;99.90
18741;DHT22;9499;52.472;13.448;2024-03-08T02:55:32;2.00;99.90
18741;DHT22;9499;52.472;13.448;2024-03-08T02:58:01;2.00;1.00
18741;DHT22;9499;52.472;13.448;2024-03-08T03:00:28;2.10;99.90
18741;DHT22;9499;52.472;13.448;2024-03-08T03:02:56;2.10;99.90
18741;DHT22;9499;52.472;13.448;2024-03-08T03:05:23;2.10;99.90
18741;DHT22;9499;52.472;13.448;2024-03-08T03:07:50;2.00;99.90
18741;DHT22;9499;52.472;13.448;2024-03-08T03:10:16;2.10;99.90
18741;DHT22;9499;52.472;13.448;2024-03-08T03:12:45;2.10;99.90
18741;DHT22;9499;52.472;13.448;2024-03-08T03:15:14;2.10;99.90
18741;DHT22;9499;52.472;13.448;2024-03-08T03:17:45;2.00;99.90
18741;DHT22;9499;52.472;13.448;2024-03-08T03:20:12;2.00;99.90
18741;DHT22;9499;52.472;13.448;2024-03-08T03:22:39;1.90;1.00
18741;DHT22;9499;52.472;13.448;2024-03-08T03:25:07;1.90;1.00
18741;DHT22;9499;52.472;13.448;2024-03-08T03:27:35;1.80;1.00
18741;DHT22;9499;52.472;13.448;2024-03-08T03:30:04;1.80;1.00
18741;DHT22;9499;52.472;13.448;2024-03-08T03:32:46;1.70;1.00
18741;DHT22;9499;52.472;13.448;2024-03-08T03:35:13;1.80;1.00
18741;DHT22;9499;52.472;13.448;2024-03-08T03:37:40;1.80;1.00
18741;DHT22;9499;52.472;13.448;2024-03-08T03:40:08;1.80;1.00
18741;DHT22;9499;52.472;13.448;2024-03-08T03:42:35;1.70;1.00
18741;DHT22;9499;52.472;13.448;2024-03-08T03:45:05;1.70;27.60
18741;DHT22;9499;52.472;13.448;2024-03-08T03:47:32;1.70;56.80
18741;DHT22;9499;52.472;13.448;2024-03-08T03:49:58;1.70;60.10
18741;DHT22;9499;52.472;13.448;2024-03-08T03:52:27;1.70;75.80
18741;DHT22;9499;52.472;13.448;2024-03-08T03:54:53;1.70;56.60
18741;DHT22;9499;52.472;13.448;2024-03-08T03:57:20;1.70;44.30
18741;DHT22;9499;52.472;13.448;2024-03-08T03:59:48;1.70;11.60
18741;DHT22;9499;52.472;13.448;2024-03-08T04:02:17;1.60;99.30
18741;DHT22;9499;52.472;13.448;2024-03-08T04:04:46;1.60;99.90
18741;DHT22;9499;52.472;13.448;2024-03-08T04:07:13;1.60;99.90
18741;DHT22;9499;52.472;13.448;2024-03-08T04:09:39;1.60;99.90
18741;DHT22;9499;52.472;13.448;2024-03-08T04:12:06;1.50;99.90
18741;DHT22;9499;52.472;13.448;2024-03-08T04:14:33;1.50;99.90
18741;DHT22;9499;52.472;13.448;2024-03-08T04:16:59;1.50;99.90
18741;DHT22;9499;52.472;13.448;2024-03-08T04:19:27;1.50;99.90
18741;DHT22;9499;52.472;13.448;2024-03-08T04:21:54;1.60;99.90
18741;DHT22;9499;52.472;13.448;2024-03-08T04:24:21;1.60;99.90
18741;DHT22;9499;52.472;13.448;2024-03-08T04:26:47;1.60;99.90
18741;DHT22;9499;52.472;13.448;2024-03-08T04:29:14;1.50;99.90
18741;DHT22;9499;52.472;13.448;2024-03-08T04:31:40;1.50;99.90
18741;DHT22;9499;52.472;13.448;2024-03-08T04:34:06;1.40;99.90
18741;DHT22;9499;52.472;13.448;2024-03-08T04:36:35;1.40;99.90
18741;DHT22;9499;52.472;13.448;2024-03-08T04:39:01;1.40;1.00
18741;DHT22;9499;52.472;13.448;2024-03-08T04:41:28;1.30;1.00
18741;DHT22;9499;52.472;13.448;2024-03-08T04:43:55;1.30;1.00
18741;DHT22;9499;52.472;13.448;2024-03-08T04:46:23;1.20;1.00
18741;DHT22;9499;52.472;13.448;2024-03-08T04:48:49;1.30;1.00
18741;DHT22;9499;52.472;13.448;2024-03-08T04:51:16;1.30;1.00
18741;DHT22;9499;52.472;13.448;2024-03-08T04:53:46;1.20;1.00
18741;DHT22;9499;52.472;13.448;2024-03-08T04:56:12;1.20;1.00
18741;DHT22;9499;52.472;13.448;2024-03-08T04:58:39;1.20;1.00
18741;DHT22;9499;52.472;13.448;2024-03-08T05:01:05;1.20;1.00
18741;DHT22;9499;52.472;13.448;2024-03-08T05:03:35;1.10;1.00
18741;DHT22;9499;52.472;13.448;2024-03-08T05:06:02;1.10;1.00
18741;DHT22;9499;52.472;13.448;2024-03-08T05:08:28;1.10;1.00
18741;DHT22;9499;52.472;13.448;2024-03-08T05:10:56;1.10;1.00
18741;DHT22;9499;52.472;13.448;2024-03-08T05:13:23;1.10;1.00
18741;DHT22;9499;52.472;13.448;2024-03-08T05:15:50;1.10;1.00
18741;DHT22;9499;52.472;13.448;2024-03-08T05:18:16;1.10;1.00
18741;DHT22;9499;52.472;13.448;2024-03-08T05:20:43;1.10;1.00
18741;DHT22;9499;52.472;13.448;2024-03-08T05:23:09;1.10;1.00
18741;DHT22;9499;52.472;13.448;2024-03-08T05:25:36;1.00;1.00
18741;DHT22;9499;52.472;13.448;2024-03-08T05:28:04;1.00;1.00
18741;DHT22;9499;52.472;13.448;2024-03-08T05:30:31;1.00;1.00
18741;DHT22;9499;52.472;13.448;2024-03-08T05:32:57;1.00;1.00
18741;DHT22;9499;52.472;13.448;2024-03-08T05:35:24;1.00;1.00
18741;DHT22;9499;52.472;13.448;2024-03-08T05:37:50;1.00;1.00
18741;DHT22;9499;52.472;13.448;2024-03-08T05:40:17;1.00;1.00
18741;DHT22;9499;52.472;13.448;2024-03-08T05:42:44;1.00;1.00
18741;DHT22;9499;52.472;13.448;2024-03-08T05:45:13;1.00;1.00
18741;DHT22;9499;52.472;13.448;2024-03-08T05:47:40;1.00;1.00
18741;DHT22;9499;52.472;13.448;2024-03-08T05:50:08;1.10;1.00
18741;DHT22;9499;52.472;13.448;2024-03-08T05:52:36;1.10;1.00
18741;DHT22;9499;52.472;13.448;2024-03-08T05:55:04;1.00;1.00
18741;DHT22;9499;52.472;13.448;2024-03-08T05:57:32;1.00;1.00
18741;DHT22;9499;52.472;13.448;2024-03-08T05:59:59;1.00;1.00
18741;DHT22;9499;52.472;13.448;2024-03-08T06:02:27;1.00;1.00
18741;DHT22;9499;52.472;13.448;2024-03-08T06:04:53;1.00;1.00
18741;DHT22;9499;52.472;13.448;2024-03-08T06:07:20;0.90;1.00
18741;DHT22;9499;52.472;13.448;2024-03-08T06:09:46;0.90;1.00
18741;DHT22;9499;52.472;13.448;2024-03-08T06:12:13;0.90;1.00
18741;DHT22;9499;52.472;13.448;2024-03-08T06:14:44;0.90;1.00
18741;DHT22;9499;52.472;13.448;2024-03-08T06:17:10;1.00;1.00
18741;DHT22;9499;52.472;13.448;2024-03-08T06:19:38;1.00;1.00
18741;DHT22;9499;52.472;13.448;2024-03-08T06:22:04;1.00;1.00
18741;DHT22;9499;52.472;13.448;2024-03-08T06:24:31;1.10;1.00
18741;DHT22;9499;52.472;13.448;2024-03-08T06:26:59;1.10;1.00
18741;DHT22;9499;52.472;13.448;2024-03-08T06:29:26;1.10;1.00
18741;DHT22;9499;52.472;13.448;2024-03-08T06:31:53;1.20;1.00
18741;DHT22;9499;52.472;13.448;2024-03-08T06:34:19;1.20;1.00
18741;DHT22;9499;52.472;13.448;2024-03-08T06:36:47;1.30;1.00
18741;DHT22;9499;52.472;13.448;2024-03-08T06:39:14;1.30;1.00
18741;DHT22;9499;52.472;13.448;2024-03-08T06:41:40;1.30;1.00
18741;DHT22;9499;52.472;13.448;2024-03-08T06:44:07;1.40;1.00
18741;DHT22;9499;52.472;13.448;2024-03-08T06:46:34;1.40;1.00
18741;DHT22;9499;52.472;13.448;2024-03-08T06:49:00;1.40;1.00
18741;DHT22;9499;52.472;13.448;2024-03-08T06:51:28;1.40;1.00
18741;DHT22;9499;52.472;13.448;2024-03-08T06:53:56;1.50;1.00
18741;DHT22;9499;52.472;13.448;2024-03-08T06:56:22;1.50;1.00
18741;DHT22;9499;52.472;13.448;2024-03-08T06:58:49;1.40;1.00
18741;DHT22;9499;52.472;13.448;2024-03-08T07:01:16;1.50;1.00
18741;DHT22;9499;52.472;13.448;2024-03-08T07:03:42;1.50;1.00
18741;DHT22;9499;52.472;13.448;2024-03-08T07:06:10;1.50;1.00
18741;DHT22;9499;52.472;13.448;2024-03-08T07:08:36;1.60;1.00
18741;DHT22;9499;52.472;13.448;2024-03-08T07:11:04;1.60;1.00
18741;DHT22;9499;52.472;13.448;2024-03-08T07:13:30;1.60;1.00
18741;DHT22;9499;52.472;13.448;2024-03-08T07:15:57;1.60;1.00
18741;DHT22;9499;52.472;13.448;2024-03-08T07:18:25;1.60;1.00
18741;DHT22;9499;52.472;13.448;2024-03-08T07:20:53;1.70;1.00
18741;DHT22;9499;52.472;13.448;2024-03-08T07:23:19;1.80;1.00
18741;DHT22;9499;52.472;13.448;2024-03-08T07:26:00;1.80;1.00
18741;DHT22;9499;52.472;13.448;2024-03-08T07:28:28;1.90;99.90
18741;DHT22;9499;52.472;13.448;2024-03-08T07:30:56;1.90;99.90
18741;DHT22;9499;52.472;13.448;2024-03-08T07:33:33;2.00;99.90
18741;DHT22;9499;52.472;13.448;2024-03-08T07:36:00;2.00;99.90
18741;DHT22;9499;52.472;13.448;2024-03-08T07:38:26;2.10;99.90
18741;DHT22;9499;52.472;13.448;2024-03-08T07:40:53;2.10;99.90
18741;DHT22;9499;52.472;13.448;2024-03-08T07:43:19;2.10;83.20
18741;DHT22;9499;52.472;13.448;2024-03-08T07:45:48;2.20;99.90
18741;DHT22;9499;52.472;13.448;2024-03-08T07:48:16;2.20;14.30
18741;DHT22;9499;52.472;13.448;2024-03-08T07:50:43;2.30;1.00
18741;DHT22;9499;52.472;13.448;2024-03-08T07:53:09;2.30;1.00
18741;DHT22;9499;52.472;13.448;2024-03-08T07:55:36;2.40;1.00
18741;DHT22;9499;52.472;13.448;2024-03-08T07:58:03;2.50;1.00
18741;DHT22;9499;52.472;13.448;2024-03-08T08:00:30;2.60;1.00
18741;DHT22;9499;52.472;13.448;2024-03-08T08:02:58;2.70;1.00
18741;DHT22;9499;52.472;13.448;2024-03-08T08:05:25;2.70;99.90
18741;DHT22;9499;52.472;13.448;2024-03-08T08:07:51;2.80;99.90
18741;DHT22;9499;52.472;13.448;2024-03-08T08:10:18;2.90;99.90
18741;DHT22;9499;52.472;13.448;2024-03-08T08:12:47;3.00;1.00
18741;DHT22;9499;52.472;13.448;2024-03-08T08:15:13;3.10;1.00
18741;DHT22;9499;52.472;13.448;2024-03-08T08:17:41;3.20;99.90
18741;DHT22;9499;52.472;13.448;2024-03-08T08:20:10;3.30;99.90
18741;DHT22;9499;52.472;13.448;2024-03-08T08:22:37;3.40;1.00
18741;DHT22;9499;52.472;13.448;2024-03-08T08:25:04;3.50;99.90
18741;DHT22;9499;52.472;13.448;2024-03-08T08:27:30;3.60;1.00
18741;DHT22;9499;52.472;13.448;2024-03-08T08:29:57;3.60;1.00
18741;DHT22;9499;52.472;13.448;2024-03-08T08:32:23;3.70;99.90
18741;DHT22;9499;52.472;13.448;2024-03-08T08:34:50;3.70;1.00
18741;DHT22;9499;52.472;13.448;2024-03-08T08:37:18;3.80;1.00
18741;DHT22;9499;52.472;13.448;2024-03-08T08:39:44;3.90;1.00
18741;DHT22;9499;52.472;13.448;2024-03-08T08:42:11;4.00;1.00
18741;DHT22;9499;52.472;13.448;2024-03-08T08:44:38;4.10;99.90
18741;DHT22;9499;52.472;13.448;2024-03-08T08:47:04;4.20;99.90
18741;DHT22;9499;52.472;13.448;2024-03-08T08:49:31;4.20;1.00
18741;DHT22;9499;52.472;13.448;2024-03-08T08:51:57;4.30;1.00
18741;DHT22;9499;52.472;13.448;2024-03-08T08:54:26;4.40;1.00
18741;DHT22;9499;52.472;13.448;2024-03-08T08:56:53;4.50;99.90
18741;DHT22;9499;52.472;13.448;2024-03-08T08:59:19;4.60;32.40
18741;DHT22;9499;52.472;13.448;2024-03-08T09:01:48;4.70;1.00
18741;DHT22;9499;52.472;13.448;2024-03-08T09:04:17;4.80;1.00
18741;DHT22;9499;52.472;13.448;2024-03-08T09:06:44;4.80;99.90
18741;DHT22;9499;52.472;13.448;2024-03-08T09:09:11;4.90;99.90
18741;DHT22;9499;52.472;13.448;2024-03-08T09:11:40;4.90;99.90
18741;DHT22;9499;52.472;13.448;2024-03-08T09:14:07;5.00;99.90
18741;DHT22;9499;52.472;13.448;2024-03-08T09:16:34;5.10;1.80
18741;DHT22;9499;52.472;13.448;2024-03-08T09:19:00;5.20;1.00
18741;DHT22;9499;52.472;13.448;2024-03-08T09:21:27;5.30;1.00
18741;DHT22;9499;52.472;13.448;2024-03-08T09:23:53;5.40;99.90
18741;DHT22;9499;52.472;13.448;2024-03-08T09:26:20;5.40;99.90
18741;DHT22;9499;52.472;13.448;2024-03-08T09:28:49;5.50;1.00
18741;DHT22;9499;52.472;13.448;2024-03-08T09:31:15;5.60;1.00
18741;DHT22;9499;52.472;13.448;2024-03-08T09:33:42;5.60;1.00
18741;DHT22;9499;52.472;13.448;2024-03-08T09:36:08;5.70;1.00
18741;DHT22;9499;52.472;13.448;2024-03-08T09:38:35;5.70;99.90
18741;DHT22;9499;52.472;13.448;2024-03-08T09:41:01;5.80;99.90
18741;DHT22;9499;52.472;13.448;2024-03-08T09:43:29;5.80;99.90
18741;DHT22;9499;52.472;13.448;2024-03-08T09:45:58;5.90;99.90
18741;DHT22;9499;52.472;13.448;2024-03-08T09:48:25;5.90;1.00
18741;DHT22;9499;52.472;13.448;2024-03-08T09:50:52;5.90;1.00
18741;DHT22;9499;52.472;13.448;2024-03-08T09:53:19;5.90;1.00
18741;DHT22;9499;52.472;13.448;2024-03-08T09:55:47;6.00;1.00
18741;DHT22;9499;52.472;13.448;2024-03-08T09:58:15;6.00;1.00
18741;DHT22;9499;52.472;13.448;2024-03-08T10:00:53;6.10;1.00
18741;DHT22;9499;52.472;13.448;2024-03-08T10:03:21;6.20;1.00
18741;DHT22;9499;52.472;13.448;2024-03-08T10:05:48;6.20;1.00
18741;DHT22;9499;52.472;13.448;2024-03-08T10:08:14;6.30;1.00
18741;DHT22;9499;52.472;13.448;2024-03-08T10:10:41;6.40;1.00
18741;DHT22;9499;52.472;13.448;2024-03-08T10:13:09;6.70;1.00
18741;DHT22;9499;52.472;13.448;2024-03-08T10:15:39;7.00;1.00
18741;DHT22;9499;52.472;13.448;2024-03-08T10:18:06;7.20;1.00
18741;DHT22;9499;52.472;13.448;2024-03-08T10:20:34;7.50;99.90
18741;DHT22;9499;52.472;13.448;2024-03-08T10:23:01;7.70;99.90
18741;DHT22;9499;52.472;13.448;2024-03-08T10:25:30;7.90;99.90
18741;DHT22;9499;52.472;13.448;2024-03-08T10:27:56;8.20;99.90
18741;DHT22;9499;52.472;13.448;2024-03-08T10:30:23;8.30;99.90
18741;DHT22;9499;52.472;13.448;2024-03-08T10:32:50;8.50;99.90
18741;DHT22;9499;52.472;13.448;2024-03-08T10:35:17;8.60;99.90
18741;DHT22;9499;52.472;13.448;2024-03-08T10:37:49;8.70;99.90
18741;DHT22;9499;52.472;13.448;2024-03-08T10:40:24;8.80;99.90
18741;DHT22;9499;52.472;13.448;2024-03-08T10:42:52;8.90;99.90
18741;DHT22;9499;52.472;13.448;2024-03-08T10:45:26;9.10;99.90
18741;DHT22;9499;52.472;13.448;2024-03-08T10:48:17;9.30;99.90
18741;DHT22;9499;52.472;13.448;2024-03-08T10:50:47;9.50;99.90
18741;DHT22;9499;52.472;13.448;2024-03-08T10:53:18;9.60;99.90
18741;DHT22;9499;52.472;13.448;2024-03-08T10:55:46;9.60;99.90
18741;DHT22;9499;52.472;13.448;2024-03-08T10:58:13;9.90;99.90
18741;DHT22;9499;52.472;13.448;2024-03-08T11:00:40;10.00;99.90
18741;DHT22;9499;52.472;13.448;2024-03-08T11:03:07;10.00;99.90
18741;DHT22;9499;52.472;13.448;2024-03-08T11:05:37;10.10;99.90
18741;DHT22;9499;52.472;13.448;2024-03-08T11:08:16;10.20;99.90
18741;DHT22;9499;52.472;13.448;2024-03-08T11:10:48;10.20;99.90
18741;DHT22;9499;52.472;13.448;2024-03-08T11:13:35;10.30;99.90
18741;DHT22;9499;52.472;13.448;2024-03-08T11:16:01;10.30;99.90
18741;DHT22;9499;52.472;13.448;2024-03-08T11:18:32;10.50;99.90
18741;DHT22;9499;52.472;13.448;2024-03-08T11:20:58;10.70;99.90
18741;DHT22;9499;52.472;13.448;2024-03-08T11:23:31;10.90;99.90
18741;DHT22;9499;52.472;13.448;2024-03-08T11:25:59;10.80;99.90
18741;DHT22;9499;52.472;13.448;2024-03-08T11:28:25;10.90;99.90
18741;DHT22;9499;52.472;13.448;2024-03-08T11:31:24;11.00;99.90
18741;DHT22;9499;52.472;13.448;2024-03-08T11:33:51;11.10;99.90
18741;DHT22;9499;52.472;13.448;2024-03-08T11:36:21;11.30;99.90
18741;DHT22;9499;52.472;13.448;2024-03-08T11:38:50;11.60;99.90
18741;DHT22;9499;52.472;13.448;2024-03-08T11:41:19;11.80;99.90
18741;DHT22;9499;52.472;13.448;2024-03-08T11:43:46;11.90;99.90
18741;DHT22;9499;52.472;13.448;2024-03-08T11:46:14;12.00;99.90
18741;DHT22;9499;52.472;13.448;2024-03-08T11:48:41;12.00;99.90
18741;DHT22;9499;52.472;13.448;2024-03-08T11:51:09;12.10;99.90
18741;DHT22;9499;52.472;13.448;2024-03-08T11:53:37;12.30;99.90
18741;DHT22;9499;52.472;13.448;2024-03-08T11:56:09;12.30;99.90
18741;DHT22;9499;52.472;13.448;2024-03-08T11:58:36;12.30;99.90
18741;DHT22;9499;52.472;13.448;2024-03-08T12:01:03;12.20;99.90
18741;DHT22;9499;52.472;13.448;2024-03-08T12:03:31;12.00;99.90
18741;DHT22;9499;52.472;13.448;2024-03-08T12:05:59;12.10;99.90
18741;DHT22;9499;52.472;13.448;2024-03-08T12:08:26;12.30;99.90
18741;DHT22;9499;52.472;13.448;2024-03-08T12:10:53;12.50;99.90
18741;DHT22;9499;52.472;13.448;2024-03-08T12:13:26;12.80;99.90
18741;DHT22;9499;52.472;13.448;2024-03-08T12:15:57;13.00;99.90
18741;DHT22;9499;52.472;13.448;2024-03-08T12:18:24;13.10;99.90
18741;DHT22;9499;52.472;13.448;2024-03-08T12:20:51;13.00;99.90
18741;DHT22;9499;52.472;13.448;2024-03-08T12:23:18;12.90;99.90
18741;DHT22;9499;52.472;13.448;2024-03-08T12:25:44;13.00;99.90
18741;DHT22;9499;52.472;13.448;2024-03-08T12:28:13;13.10;99.90
18741;DHT22;9499;52.472;13.448;2024-03-08T12:30:46;13.30;99.90
18741;DHT22;9499;52.472;13.448;2024-03-08T12:33:13;13.60;99.90
18741;DHT22;9499;52.472;13.448;2024-03-08T12:35:40;13.70;99.90
18741;DHT22;9499;52.472;13.448;2024-03-08T12:38:07;13.80;99.90
18741;DHT22;9499;52.472;13.448;2024-03-08T12:40:34;13.80;99.90
18741;DHT22;9499;52.472;13.448;2024-03-08T12:43:05;14.00;99.90
18741;DHT22;9499;52.472;13.448;2024-03-08T12:45:32;13.60;99.90
18741;DHT22;9499;52.472;13.448;2024-03-08T12:47:59;13.50;99.90
18741;DHT22;9499;52.472;13.448;2024-03-08T12:50:28;13.60;99.90
18741;DHT22;9499;52.472;13.448;2024-03-08T12:52:55;13.60;99.90
18741;DHT22;9499;52.472;13.448;2024-03-08T12:55:22;13.60;99.90
18741;DHT22;9499;52.472;13.448;2024-03-08T12:57:49;13.60;99.90
18741;DHT22;9499;52.472;13.448;2024-03-08T13:00:18;13.60;99.90
18741;DHT22;9499;52.472;13.448;2024-03-08T13:02:45;13.70;99.90
18741;DHT22;9499;52.472;13.448;2024-03-08T13:05:13;13.80;99.90
18741;DHT22;9499;52.472;13.448;2024-03-08T13:07:40;13.90;99.90
18741;DHT22;9499;52.472;13.448;2024-03-08T13:10:11;13.90;99.90
18741;DHT22;9499;52.472;13.448;2024-03-08T13:12:39;13.90;99.90
18741;DHT22;9499;52.472;13.448;2024-03-08T13:15:07;13.90;99.90
18741;DHT22;9499;52.472;13.448;2024-03-08T13:17:37;13.90;99.90
18741;DHT22;9499;52.472;13.448;2024-03-08T13:20:06;14.20;99.90
18741;DHT22;9499;52.472;13.448;2024-03-08T13:22:35;14.10;99.90
18741;DHT22;9499;52.472;13.448;2024-03-08T13:25:01;14.10;99.80
18741;DHT22;9499;52.472;13.448;2024-03-08T13:27:28;14.00;99.90
18741;DHT22;9499;52.472;13.448;2024-03-08T13:29:55;14.00;99.90
18741;DHT22;9499;52.472;13.448;2024-03-08T13:32:21;14.10;99.90
18741;DHT22;9499;52.472;13.448;2024-03-08T13:34:49;14.20;96.80
18741;DHT22;9499;52.472;13.448;2024-03-08T13:37:16;14.10;92.80
18741;DHT22;9499;52.472;13.448;2024-03-08T13:39:44;14.10;93.70
18741;DHT22;9499;52.472;13.448;2024-03-08T13:42:11;14.20;83.30
18741;DHT22;9499;52.472;13.448;2024-03-08T13:44:43;14.00;80.70
18741;DHT22;9499;52.472;13.448;2024-03-08T13:47:11;13.80;84.60
18741;DHT22;9499;52.472;13.448;2024-03-08T13:49:38;13.80;87.30
18741;DHT22;9499;52.472;13.448;2024-03-08T13:52:05;13.90;85.10
18741;DHT22;9499;52.472;13.448;2024-03-08T13:54:33;14.20;78.20
18741;DHT22;9499;52.472;13.448;2024-03-08T13:57:02;14.30;78.00
18741;DHT22;9499;52.472;13.448;2024-03-08T13:59:29;14.40;71.80
18741;DHT22;9499;52.472;13.448;2024-03-08T14:01:58;14.30;55.20
18741;DHT22;9499;52.472;13.448;2024-03-08T14:04:25;14.20;67.70
18741;DHT22;9499;52.472;13.448;2024-03-08T14:06:52;14.30;77.40
18741;DHT22;9499;52.472;13.448;2024-03-08T14:09:24;14.30;67.80
18741;DHT22;9499;52.472;13.448;2024-03-08T14:11:52;14.40;53.10
18741;DHT22;9499;52.472;13.448;2024-03-08T14:14:21;14.50;53.30
18741;DHT22;9499;52.472;13.448;2024-03-08T14:16:49;14.50;54.30
18741;DHT22;9499;52.472;13.448;2024-03-08T14:21:57;14.30;58.10
18741;DHT22;9499;52.472;13.448;2024-03-08T14:24:24;14.20;62.40
18741;DHT22;9499;52.472;13.448;2024-03-08T14:26:51;14.10;50.10
18741;DHT22;9499;52.472;13.448;2024-03-08T14:29:18;14.10;49.60
18741;DHT22;9499;52.472;13.448;2024-03-08T14:31:45;14.10;57.60
18741;DHT22;9499;52.472;13.448;2024-03-08T14:34:12;14.20;55.80
18741;DHT22;9499;52.472;13.448;2024-03-08T14:36:40;14.10;53.70
18741;DHT22;9499;52.472;13.448;2024-03-08T14:39:06;13.80;48.50
18741;DHT22;9499;52.472;13.448;2024-03-08T14:41:33;13.60;46.00
18741;DHT22;9499;52.472;13.448;2024-03-08T14:44:00;13.50;44.10
18741;DHT22;9499;52.472;13.448;2024-03-08T14:46:27;13.30;32.30
18741;DHT22;9499;52.472;13.448;2024-03-08T14:48:55;13.30;39.70
18741;DHT22;9499;52.472;13.448;2024-03-08T14:51:22;13.40;36.80
18741;DHT22;9499;52.472;13.448;2024-03-08T14:53:51;13.20;31.80
18741;DHT22;9499;52.472;13.448;2024-03-08T14:56:20;12.90;26.70
18741;DHT22;9499;52.472;13.448;2024-03-08T14:58:46;12.70;16.30
18741;DHT22;9499;52.472;13.448;2024-03-08T15:01:15;12.60;11.00
18741;DHT22;9499;52.472;13.448;2024-03-08T15:03:41;12.50;17.10
18741;DHT22;9499;52.472;13.448;2024-03-08T15:06:10;12.40;10.30
18741;DHT22;9499;52.472;13.448;2024-03-08T15:08:38;12.10;1.30
18741;DHT22;9499;52.472;13.448;2024-03-08T15:11:05;11.90;6.60
18741;DHT22;9499;52.472;13.448;2024-03-08T15:13:32;11.80;5.60
18741;DHT22;9499;52.472;13.448;2024-03-08T15:16:06;11.60;5.60
18741;DHT22;9499;52.472;13.448;2024-03-08T15:18:34;11.50;1.00
18741;DHT22;9499;52.472;13.448;2024-03-08T15:21:03;11.50;1.00
18741;DHT22;9499;52.472;13.448;2024-03-08T15:23:33;11.40;1.00
18741;DHT22;9499;52.472;13.448;2024-03-08T15:26:00;11.30;1.00
18741;DHT22;9499;52.472;13.448;2024-03-08T15:28:27;11.20;1.00
18741;DHT22;9499;52.472;13.448;2024-03-08T15:31:01;11.00;1.00
18741;DHT22;9499;52.472;13.448;2024-03-08T15:33:31;10.90;1.00
18741;DHT22;9499;52.472;13.448;2024-03-08T15:35:58;10.70;1.00
18741;DHT22;9499;52.472;13.448;2024-03-08T15:38:26;10.60;1.00
18741;DHT22;9499;52.472;13.448;2024-03-08T15:40:55;10.60;1.00
18741;DHT22;9499;52.472;13.448;2024-03-08T15:43:21;10.60;1.00
18741;DHT22;9499;52.472;13.448;2024-03-08T15:45:48;10.60;1.00
18741;DHT22;9499;52.472;13.448;2024-03-08T15:48:15;10.50;1.00
18741;DHT22;9499;52.472;13.448;2024-03-08T15:50:42;10.50;1.00
18741;DHT22;9499;52.472;13.448;2024-03-08T15:53:09;10.60;1.00